sensor_id;sensor_type;location;lat;lon;timestamp;P1;durP1;ratioP1;P2;durP2;ratioP2
15363;SDS011;7781;49.690;6.472;2022-12-11T00:00:52;32.73;;;14.60;;
15363;SDS011;7781;49.690;6.472;2022-12-11T00:03:20;26.73;;;13.33;;
15363;SDS011;7781;49.690;6.472;2022-12-11T00:05:49;28.90;;;11.43;;
15363;SDS011;7781;49.690;6.472;2022-12-11T00:08:19;24.50;;;12.50;;
15363;SDS011;7781;49.690;6.472;2022-12-11T00:10:48;30.63;;;12.83;;
15363;SDS011;7781;49.690;6.472;2022-12-11T00:13:18;27.73;;;12.00;;
15363;SDS011;7781;49.690;6.472;2022-12-11T00:15:47;18.80;;;9.27;;
15363;SDS011;7781;49.690;6.472;2022-12-11T00:18:15;37.83;;;13.83;;
15363;SDS011;7781;49.690;6.472;2022-12-11T00:20:44;29.27;;;12.90;;
15363;SDS011;7781;49.690;6.472;2022-12-11T00:23:14;29.47;;;12.97;;
15363;SDS011;7781;49.690;6.472;2022-12-11T00:25:47;31.83;;;12.50;;
15363;SDS011;7781;49.690;6.472;2022-12-11T00:28:16;25.97;;;12.23;;
15363;SDS011;7781;49.690;6.472;2022-12-11T00:30:46;26.03;;;11.20;;
15363;SDS011;7781;49.690;6.472;2022-12-11T00:33:14;28.17;;;12.80;;
15363;SDS011;7781;49.690;6.472;2022-12-11T00:35:45;21.00;;;10.77;;
15363;SDS011;7781;49.690;6.472;2022-12-11T00:38:17;8.60;;;4.63;;
15363;SDS011;7781;49.690;6.472;2022-12-11T00:40:48;23.90;;;10.13;;
15363;SDS011;7781;49.690;6.472;2022-12-11T00:43:21;24.13;;;10.23;;
15363;SDS011;7781;49.690;6.472;2022-12-11T00:45:49;22.83;;;10.10;;
15363;SDS011;7781;49.690;6.472;2022-12-11T00:48:18;28.47;;;10.00;;
15363;SDS011;7781;49.690;6.472;2022-12-11T00:50:48;28.40;;;13.53;;
15363;SDS011;7781;49.690;6.472;2022-12-11T00:53:18;20.13;;;9.73;;
15363;SDS011;7781;49.690;6.472;2022-12-11T00:55:49;22.90;;;11.67;;
15363;SDS011;7781;49.690;6.472;2022-12-11T00:58:18;19.10;;;10.47;;
15363;SDS011;7781;49.690;6.472;2022-12-11T01:00:46;24.97;;;11.13;;
15363;SDS011;7781;49.690;6.472;2022-12-11T01:03:16;16.43;;;8.20;;
15363;SDS011;7781;49.690;6.472;2022-12-11T01:08:29;23.13;;;11.27;;
15363;SDS011;7781;49.690;6.472;2022-12-11T01:11:06;23.70;;;10.50;;
15363;SDS011;7781;49.690;6.472;2022-12-11T01:13:36;23.70;;;10.90;;
15363;SDS011;7781;49.690;6.472;2022-12-11T01:16:09;25.93;;;11.00;;
15363;SDS011;7781;49.690;6.472;2022-12-11T01:18:42;23.70;;;11.20;;
15363;SDS011;7781;49.690;6.472;2022-12-11T01:21:13;23.43;;;10.17;;
15363;SDS011;7781;49.690;6.472;2022-12-11T01:23:42;22.53;;;11.53;;
15363;SDS011;7781;49.690;6.472;2022-12-11T01:26:15;22.63;;;11.13;;
15363;SDS011;7781;49.690;6.472;2022-12-11T01:28:44;25.00;;;10.33;;
15363;SDS011;7781;49.690;6.472;2022-12-11T01:31:16;21.73;;;9.80;;
15363;SDS011;7781;49.690;6.472;2022-12-11T01:33:46;25.20;;;11.50;;
15363;SDS011;7781;49.690;6.472;2022-12-11T01:36:18;24.60;;;10.53;;
15363;SDS011;7781;49.690;6.472;2022-12-11T01:38:48;20.10;;;11.13;;
15363;SDS011;7781;49.690;6.472;2022-12-11T01:41:19;19.07;;;10.03;;
15363;SDS011;7781;49.690;6.472;2022-12-11T01:43:55;26.30;;;11.03;;
15363;SDS011;7781;49.690;6.472;2022-12-11T01:46:26;20.20;;;10.57;;
15363;SDS011;7781;49.690;6.472;2022-12-11T01:48:56;22.90;;;10.80;;
15363;SDS011;7781;49.690;6.472;2022-12-11T01:51:26;27.80;;;10.50;;
15363;SDS011;7781;49.690;6.472;2022-12-11T01:53:59;22.80;;;9.67;;
15363;SDS011;7781;49.690;6.472;2022-12-11T01:56:32;27.37;;;10.70;;
15363;SDS011;7781;49.690;6.472;2022-12-11T01:59:04;20.13;;;9.87;;
15363;SDS011;7781;49.690;6.472;2022-12-11T02:01:36;15.77;;;8.50;;
15363;SDS011;7781;49.690;6.472;2022-12-11T02:04:13;23.87;;;10.57;;
15363;SDS011;7781;49.690;6.472;2022-12-11T02:06:43;24.03;;;9.73;;
15363;SDS011;7781;49.690;6.472;2022-12-11T02:09:15;19.13;;;8.60;;
15363;SDS011;7781;49.690;6.472;2022-12-11T02:11:51;27.80;;;11.17;;
15363;SDS011;7781;49.690;6.472;2022-12-11T02:14:26;21.40;;;10.53;;
15363;SDS011;7781;49.690;6.472;2022-12-11T02:17:01;20.00;;;10.17;;
15363;SDS011;7781;49.690;6.472;2022-12-11T02:22:27;22.80;;;10.60;;
15363;SDS011;7781;49.690;6.472;2022-12-11T02:25:12;22.20;;;9.70;;
15363;SDS011;7781;49.690;6.472;2022-12-11T02:27:50;25.80;;;11.20;;
15363;SDS011;7781;49.690;6.472;2022-12-11T02:30:26;26.00;;;10.13;;
15363;SDS011;7781;49.690;6.472;2022-12-11T02:32:56;32.00;;;11.87;;
15363;SDS011;7781;49.690;6.472;2022-12-11T02:35:27;26.33;;;10.27;;
15363;SDS011;7781;49.690;6.472;2022-12-11T02:38:00;29.37;;;11.60;;
15363;SDS011;7781;49.690;6.472;2022-12-11T02:40:32;30.77;;;13.03;;
15363;SDS011;7781;49.690;6.472;2022-12-11T02:43:05;25.10;;;12.80;;
15363;SDS011;7781;49.690;6.472;2022-12-11T02:45:38;29.40;;;12.17;;
15363;SDS011;7781;49.690;6.472;2022-12-11T02:48:08;24.00;;;10.83;;
15363;SDS011;7781;49.690;6.472;2022-12-11T02:50:41;22.90;;;12.20;;
15363;SDS011;7781;49.690;6.472;2022-12-11T02:53:15;32.17;;;10.77;;
15363;SDS011;7781;49.690;6.472;2022-12-11T02:55:46;23.77;;;10.80;;
15363;SDS011;7781;49.690;6.472;2022-12-11T02:58:20;23.13;;;10.90;;
15363;SDS011;7781;49.690;6.472;2022-12-11T03:00:55;21.30;;;10.77;;
15363;SDS011;7781;49.690;6.472;2022-12-11T03:03:24;21.87;;;10.10;;
15363;SDS011;7781;49.690;6.472;2022-12-11T03:05:54;23.57;;;10.70;;
15363;SDS011;7781;49.690;6.472;2022-12-11T03:08:22;27.23;;;11.80;;
15363;SDS011;7781;49.690;6.472;2022-12-11T03:10:54;20.53;;;10.67;;
15363;SDS011;7781;49.690;6.472;2022-12-11T03:13:23;25.47;;;11.70;;
15363;SDS011;7781;49.690;6.472;2022-12-11T03:15:58;27.47;;;10.90;;
15363;SDS011;7781;49.690;6.472;2022-12-11T03:18:38;20.87;;;10.83;;
15363;SDS011;7781;49.690;6.472;2022-12-11T03:21:13;25.70;;;11.03;;
15363;SDS011;7781;49.690;6.472;2022-12-11T03:23:47;25.37;;;11.80;;
15363;SDS011;7781;49.690;6.472;2022-12-11T03:26:19;28.90;;;12.90;;
15363;SDS011;7781;49.690;6.472;2022-12-11T03:28:53;25.57;;;11.97;;
15363;SDS011;7781;49.690;6.472;2022-12-11T03:31:28;29.60;;;13.67;;
15363;SDS011;7781;49.690;6.472;2022-12-11T03:34:06;31.53;;;13.70;;
15363;SDS011;7781;49.690;6.472;2022-12-11T03:36:39;24.67;;;12.00;;
15363;SDS011;7781;49.690;6.472;2022-12-11T03:39:12;33.43;;;13.90;;
15363;SDS011;7781;49.690;6.472;2022-12-11T03:41:45;30.13;;;13.20;;
15363;SDS011;7781;49.690;6.472;2022-12-11T03:44:17;34.70;;;12.30;;
15363;SDS011;7781;49.690;6.472;2022-12-11T03:46:49;32.17;;;12.80;;
15363;SDS011;7781;49.690;6.472;2022-12-11T03:49:22;20.20;;;9.10;;
15363;SDS011;7781;49.690;6.472;2022-12-11T03:51:55;24.37;;;11.97;;
15363;SDS011;7781;49.690;6.472;2022-12-11T03:54:24;28.10;;;11.70;;
15363;SDS011;7781;49.690;6.472;2022-12-11T03:56:56;24.07;;;12.27;;
15363;SDS011;7781;49.690;6.472;2022-12-11T03:59:26;25.83;;;13.10;;
15363;SDS011;7781;49.690;6.472;2022-12-11T04:01:56;23.57;;;10.93;;
15363;SDS011;7781;49.690;6.472;2022-12-11T04:04:25;26.60;;;10.33;;
15363;SDS011;7781;49.690;6.472;2022-12-11T04:06:55;23.73;;;10.30;;
15363;SDS011;7781;49.690;6.472;2022-12-11T04:09:24;22.00;;;9.73;;
15363;SDS011;7781;49.690;6.472;2022-12-11T04:11:54;27.63;;;10.93;;
15363;SDS011;7781;49.690;6.472;2022-12-11T04:14:31;25.27;;;11.27;;
15363;SDS011;7781;49.690;6.472;2022-12-11T04:17:21;20.60;;;10.40;;
15363;SDS011;7781;49.690;6.472;2022-12-11T04:20:03;18.10;;;9.60;;
15363;SDS011;7781;49.690;6.472;2022-12-11T04:22:52;28.90;;;10.23;;
15363;SDS011;7781;49.690;6.472;2022-12-11T04:25:42;15.03;;;7.70;;
15363;SDS011;7781;49.690;6.472;2022-12-11T04:28:11;17.77;;;9.33;;
15363;SDS011;7781;49.690;6.472;2022-12-11T04:30:46;23.10;;;10.50;;
15363;SDS011;7781;49.690;6.472;2022-12-11T04:33:18;25.13;;;10.80;;
15363;SDS011;7781;49.690;6.472;2022-12-11T04:35:47;21.07;;;10.43;;
15363;SDS011;7781;49.690;6.472;2022-12-11T04:38:15;31.37;;;10.60;;
15363;SDS011;7781;49.690;6.472;2022-12-11T04:40:44;23.90;;;10.77;;
15363;SDS011;7781;49.690;6.472;2022-12-11T04:43:14;22.60;;;10.37;;
15363;SDS011;7781;49.690;6.472;2022-12-11T04:45:43;23.27;;;10.93;;
15363;SDS011;7781;49.690;6.472;2022-12-11T04:48:12;21.33;;;10.40;;
15363;SDS011;7781;49.690;6.472;2022-12-11T04:50:42;27.87;;;10.60;;
15363;SDS011;7781;49.690;6.472;2022-12-11T04:53:12;27.13;;;10.10;;
15363;SDS011;7781;49.690;6.472;2022-12-11T04:55:41;21.43;;;9.50;;
15363;SDS011;7781;49.690;6.472;2022-12-11T04:58:09;24.97;;;10.93;;
15363;SDS011;7781;49.690;6.472;2022-12-11T05:00:38;26.23;;;11.83;;
15363;SDS011;7781;49.690;6.472;2022-12-11T05:03:09;24.50;;;10.10;;
15363;SDS011;7781;49.690;6.472;2022-12-11T05:05:37;26.17;;;11.43;;
15363;SDS011;7781;49.690;6.472;2022-12-11T05:08:08;22.90;;;9.83;;
15363;SDS011;7781;49.690;6.472;2022-12-11T05:10:38;23.67;;;11.30;;
15363;SDS011;7781;49.690;6.472;2022-12-11T05:13:15;25.67;;;11.10;;
15363;SDS011;7781;49.690;6.472;2022-12-11T05:15:47;19.23;;;9.53;;
15363;SDS011;7781;49.690;6.472;2022-12-11T05:18:15;24.90;;;9.73;;
15363;SDS011;7781;49.690;6.472;2022-12-11T05:20:44;21.73;;;9.97;;
15363;SDS011;7781;49.690;6.472;2022-12-11T05:23:23;24.37;;;9.73;;
15363;SDS011;7781;49.690;6.472;2022-12-11T05:25:52;20.27;;;9.90;;
15363;SDS011;7781;49.690;6.472;2022-12-11T05:28:22;21.57;;;10.27;;
15363;SDS011;7781;49.690;6.472;2022-12-11T05:30:54;21.50;;;10.33;;
15363;SDS011;7781;49.690;6.472;2022-12-11T05:33:23;19.73;;;9.43;;
15363;SDS011;7781;49.690;6.472;2022-12-11T05:35:53;18.40;;;9.13;;
15363;SDS011;7781;49.690;6.472;2022-12-11T05:38:24;23.87;;;9.30;;
15363;SDS011;7781;49.690;6.472;2022-12-11T05:40:54;22.00;;;10.00;;
15363;SDS011;7781;49.690;6.472;2022-12-11T05:43:24;17.40;;;8.17;;
15363;SDS011;7781;49.690;6.472;2022-12-11T05:46:04;23.43;;;10.57;;
15363;SDS011;7781;49.690;6.472;2022-12-11T05:48:37;20.43;;;9.20;;
15363;SDS011;7781;49.690;6.472;2022-12-11T05:51:07;27.40;;;10.40;;
15363;SDS011;7781;49.690;6.472;2022-12-11T05:53:40;25.23;;;10.30;;
15363;SDS011;7781;49.690;6.472;2022-12-11T05:56:10;21.53;;;9.40;;
15363;SDS011;7781;49.690;6.472;2022-12-11T05:58:40;23.30;;;10.80;;
15363;SDS011;7781;49.690;6.472;2022-12-11T06:01:13;22.13;;;10.70;;
15363;SDS011;7781;49.690;6.472;2022-12-11T06:03:45;13.03;;;5.40;;
15363;SDS011;7781;49.690;6.472;2022-12-11T06:06:14;28.43;;;11.90;;
15363;SDS011;7781;49.690;6.472;2022-12-11T06:08:49;25.33;;;10.23;;
15363;SDS011;7781;49.690;6.472;2022-12-11T06:11:18;20.13;;;9.60;;
15363;SDS011;7781;49.690;6.472;2022-12-11T06:13:50;22.97;;;10.23;;
15363;SDS011;7781;49.690;6.472;2022-12-11T06:16:20;21.23;;;9.83;;
15363;SDS011;7781;49.690;6.472;2022-12-11T06:18:49;21.40;;;9.83;;
15363;SDS011;7781;49.690;6.472;2022-12-11T06:21:24;16.13;;;8.17;;
15363;SDS011;7781;49.690;6.472;2022-12-11T06:23:57;18.87;;;9.10;;
15363;SDS011;7781;49.690;6.472;2022-12-11T06:26:29;22.70;;;8.70;;
15363;SDS011;7781;49.690;6.472;2022-12-11T06:28:59;21.23;;;8.83;;
15363;SDS011;7781;49.690;6.472;2022-12-11T06:31:34;12.80;;;5.80;;
15363;SDS011;7781;49.690;6.472;2022-12-11T06:34:03;17.63;;;8.00;;
15363;SDS011;7781;49.690;6.472;2022-12-11T06:36:32;11.13;;;3.83;;
15363;SDS011;7781;49.690;6.472;2022-12-11T06:39:03;10.03;;;5.80;;
15363;SDS011;7781;49.690;6.472;2022-12-11T06:41:33;16.03;;;7.03;;
15363;SDS011;7781;49.690;6.472;2022-12-11T06:44:02;21.03;;;10.80;;
15363;SDS011;7781;49.690;6.472;2022-12-11T06:46:33;18.33;;;8.23;;
15363;SDS011;7781;49.690;6.472;2022-12-11T06:49:03;15.37;;;7.23;;
15363;SDS011;7781;49.690;6.472;2022-12-11T06:51:32;17.13;;;8.47;;
15363;SDS011;7781;49.690;6.472;2022-12-11T06:54:03;14.27;;;7.83;;
15363;SDS011;7781;49.690;6.472;2022-12-11T06:56:32;16.27;;;6.93;;
15363;SDS011;7781;49.690;6.472;2022-12-11T06:59:01;17.63;;;7.60;;
15363;SDS011;7781;49.690;6.472;2022-12-11T07:01:33;18.53;;;7.83;;
15363;SDS011;7781;49.690;6.472;2022-12-11T07:04:01;15.67;;;7.37;;
15363;SDS011;7781;49.690;6.472;2022-12-11T07:06:32;12.97;;;6.67;;
15363;SDS011;7781;49.690;6.472;2022-12-11T07:09:03;17.00;;;7.37;;
15363;SDS011;7781;49.690;6.472;2022-12-11T07:11:33;13.47;;;6.10;;
15363;SDS011;7781;49.690;6.472;2022-12-11T07:14:01;17.57;;;7.43;;
15363;SDS011;7781;49.690;6.472;2022-12-11T07:16:31;16.73;;;8.20;;
15363;SDS011;7781;49.690;6.472;2022-12-11T07:19:01;19.20;;;8.47;;
15363;SDS011;7781;49.690;6.472;2022-12-11T07:21:30;18.57;;;7.67;;
15363;SDS011;7781;49.690;6.472;2022-12-11T07:23:59;13.63;;;7.03;;
15363;SDS011;7781;49.690;6.472;2022-12-11T07:26:29;15.70;;;8.27;;
15363;SDS011;7781;49.690;6.472;2022-12-11T07:28:58;13.97;;;6.90;;
15363;SDS011;7781;49.690;6.472;2022-12-11T07:31:27;14.77;;;6.67;;
15363;SDS011;7781;49.690;6.472;2022-12-11T07:33:58;9.40;;;5.33;;
15363;SDS011;7781;49.690;6.472;2022-12-11T07:36:28;5.00;;;2.80;;
15363;SDS011;7781;49.690;6.472;2022-12-11T07:38:58;11.53;;;4.90;;
15363;SDS011;7781;49.690;6.472;2022-12-11T07:41:27;16.00;;;5.87;;
15363;SDS011;7781;49.690;6.472;2022-12-11T07:44:00;9.90;;;3.87;;
15363;SDS011;7781;49.690;6.472;2022-12-11T07:46:31;11.93;;;4.40;;
15363;SDS011;7781;49.690;6.472;2022-12-11T07:49:01;17.43;;;7.20;;
15363;SDS011;7781;49.690;6.472;2022-12-11T07:51:34;13.40;;;6.83;;
15363;SDS011;7781;49.690;6.472;2022-12-11T07:54:04;12.40;;;5.80;;
15363;SDS011;7781;49.690;6.472;2022-12-11T07:56:34;11.93;;;5.43;;
15363;SDS011;7781;49.690;6.472;2022-12-11T07:59:04;14.17;;;6.67;;
15363;SDS011;7781;49.690;6.472;2022-12-11T08:01:34;13.40;;;6.23;;
15363;SDS011;7781;49.690;6.472;2022-12-11T08:04:04;16.57;;;7.33;;
15363;SDS011;7781;49.690;6.472;2022-12-11T08:06:36;14.00;;;7.13;;
15363;SDS011;7781;49.690;6.472;2022-12-11T08:09:08;17.20;;;7.03;;
15363;SDS011;7781;49.690;6.472;2022-12-11T08:11:46;15.47;;;6.80;;
15363;SDS011;7781;49.690;6.472;2022-12-11T08:14:18;13.67;;;6.73;;
15363;SDS011;7781;49.690;6.472;2022-12-11T08:16:47;16.40;;;6.50;;
15363;SDS011;7781;49.690;6.472;2022-12-11T08:19:16;19.80;;;7.93;;
15363;SDS011;7781;49.690;6.472;2022-12-11T08:21:44;15.00;;;5.33;;
15363;SDS011;7781;49.690;6.472;2022-12-11T08:24:13;15.00;;;7.10;;
15363;SDS011;7781;49.690;6.472;2022-12-11T08:26:47;14.70;;;7.27;;
15363;SDS011;7781;49.690;6.472;2022-12-11T08:29:15;13.90;;;7.33;;
15363;SDS011;7781;49.690;6.472;2022-12-11T08:31:47;18.43;;;8.00;;
15363;SDS011;7781;49.690;6.472;2022-12-11T08:34:16;18.40;;;7.70;;
15363;SDS011;7781;49.690;6.472;2022-12-11T08:36:45;13.93;;;7.30;;
15363;SDS011;7781;49.690;6.472;2022-12-11T08:39:13;14.30;;;6.20;;
15363;SDS011;7781;49.690;6.472;2022-12-11T08:41:42;14.40;;;6.33;;
15363;SDS011;7781;49.690;6.472;2022-12-11T08:44:11;14.97;;;6.73;;
15363;SDS011;7781;49.690;6.472;2022-12-11T08:46:44;14.33;;;4.77;;
15363;SDS011;7781;49.690;6.472;2022-12-11T08:49:15;11.83;;;6.60;;
15363;SDS011;7781;49.690;6.472;2022-12-11T08:51:44;14.63;;;6.20;;
15363;SDS011;7781;49.690;6.472;2022-12-11T08:54:13;19.53;;;8.23;;
15363;SDS011;7781;49.690;6.472;2022-12-11T08:56:43;12.07;;;5.53;;
15363;SDS011;7781;49.690;6.472;2022-12-11T08:59:12;19.13;;;8.30;;
15363;SDS011;7781;49.690;6.472;2022-12-11T09:01:41;13.40;;;6.90;;
15363;SDS011;7781;49.690;6.472;2022-12-11T09:04:12;14.47;;;6.80;;
15363;SDS011;7781;49.690;6.472;2022-12-11T09:06:42;9.83;;;4.33;;
15363;SDS011;7781;49.690;6.472;2022-12-11T09:09:12;14.63;;;6.83;;
15363;SDS011;7781;49.690;6.472;2022-12-11T09:11:41;19.77;;;8.97;;
15363;SDS011;7781;49.690;6.472;2022-12-11T09:14:11;17.90;;;8.20;;
15363;SDS011;7781;49.690;6.472;2022-12-11T09:16:42;18.93;;;8.23;;
15363;SDS011;7781;49.690;6.472;2022-12-11T09:19:14;20.30;;;8.30;;
15363;SDS011;7781;49.690;6.472;2022-12-11T09:21:47;18.03;;;7.83;;
15363;SDS011;7781;49.690;6.472;2022-12-11T09:24:17;18.23;;;8.67;;
15363;SDS011;7781;49.690;6.472;2022-12-11T09:26:48;12.97;;;6.33;;
15363;SDS011;7781;49.690;6.472;2022-12-11T09:29:21;10.90;;;5.50;;
15363;SDS011;7781;49.690;6.472;2022-12-11T09:31:50;21.70;;;8.13;;
15363;SDS011;7781;49.690;6.472;2022-12-11T09:34:22;19.43;;;8.00;;
15363;SDS011;7781;49.690;6.472;2022-12-11T09:36:56;21.40;;;8.70;;
15363;SDS011;7781;49.690;6.472;2022-12-11T09:39:25;18.10;;;7.10;;
15363;SDS011;7781;49.690;6.472;2022-12-11T09:41:54;22.47;;;8.67;;
15363;SDS011;7781;49.690;6.472;2022-12-11T09:44:37;17.80;;;6.93;;
15363;SDS011;7781;49.690;6.472;2022-12-11T09:47:18;21.80;;;7.83;;
15363;SDS011;7781;49.690;6.472;2022-12-11T09:50:12;16.03;;;7.10;;
15363;SDS011;7781;49.690;6.472;2022-12-11T09:52:48;19.80;;;8.10;;
15363;SDS011;7781;49.690;6.472;2022-12-11T09:55:24;18.20;;;8.47;;
15363;SDS011;7781;49.690;6.472;2022-12-11T09:57:58;14.57;;;7.30;;
15363;SDS011;7781;49.690;6.472;2022-12-11T10:00:36;24.00;;;9.17;;
15363;SDS011;7781;49.690;6.472;2022-12-11T10:03:19;19.07;;;8.33;;
15363;SDS011;7781;49.690;6.472;2022-12-11T10:06:15;21.17;;;8.70;;
15363;SDS011;7781;49.690;6.472;2022-12-11T10:08:51;16.77;;;7.63;;
15363;SDS011;7781;49.690;6.472;2022-12-11T10:14:25;17.10;;;7.10;;
15363;SDS011;7781;49.690;6.472;2022-12-11T10:17:06;17.87;;;7.77;;
15363;SDS011;7781;49.690;6.472;2022-12-11T10:19:42;18.50;;;7.20;;
15363;SDS011;7781;49.690;6.472;2022-12-11T10:22:16;20.67;;;9.00;;
15363;SDS011;7781;49.690;6.472;2022-12-11T10:24:49;17.23;;;7.43;;
15363;SDS011;7781;49.690;6.472;2022-12-11T10:27:39;21.17;;;7.57;;
15363;SDS011;7781;49.690;6.472;2022-12-11T10:30:13;6.60;;;2.73;;
15363;SDS011;7781;49.690;6.472;2022-12-11T10:32:49;20.90;;;9.00;;
15363;SDS011;7781;49.690;6.472;2022-12-11T10:35:27;19.23;;;8.80;;
15363;SDS011;7781;49.690;6.472;2022-12-11T10:38:11;24.70;;;7.80;;
15363;SDS011;7781;49.690;6.472;2022-12-11T10:40:43;11.37;;;4.83;;
15363;SDS011;7781;49.690;6.472;2022-12-11T10:43:16;12.30;;;5.37;;
15363;SDS011;7781;49.690;6.472;2022-12-11T10:45:51;17.90;;;8.00;;
15363;SDS011;7781;49.690;6.472;2022-12-11T10:48:21;17.83;;;7.90;;
15363;SDS011;7781;49.690;6.472;2022-12-11T10:50:57;16.30;;;6.77;;
15363;SDS011;7781;49.690;6.472;2022-12-11T10:53:32;17.03;;;7.17;;
15363;SDS011;7781;49.690;6.472;2022-12-11T10:56:02;16.30;;;7.70;;
15363;SDS011;7781;49.690;6.472;2022-12-11T10:58:31;18.60;;;7.83;;
15363;SDS011;7781;49.690;6.472;2022-12-11T11:01:05;21.40;;;9.33;;
15363;SDS011;7781;49.690;6.472;2022-12-11T11:03:42;20.30;;;8.40;;
15363;SDS011;7781;49.690;6.472;2022-12-11T11:06:21;17.60;;;8.27;;
15363;SDS011;7781;49.690;6.472;2022-12-11T11:08:54;13.90;;;6.10;;
15363;SDS011;7781;49.690;6.472;2022-12-11T11:11:26;12.73;;;7.17;;
15363;SDS011;7781;49.690;6.472;2022-12-11T11:14:03;20.43;;;8.03;;
15363;SDS011;7781;49.690;6.472;2022-12-11T11:16:45;18.40;;;7.07;;
15363;SDS011;7781;49.690;6.472;2022-12-11T11:19:17;17.50;;;6.70;;
15363;SDS011;7781;49.690;6.472;2022-12-11T11:21:52;18.67;;;8.63;;
15363;SDS011;7781;49.690;6.472;2022-12-11T11:24:30;18.60;;;8.13;;
15363;SDS011;7781;49.690;6.472;2022-12-11T11:27:10;22.73;;;7.70;;
15363;SDS011;7781;49.690;6.472;2022-12-11T11:29:41;14.67;;;7.50;;
15363;SDS011;7781;49.690;6.472;2022-12-11T11:32:19;18.50;;;7.37;;
15363;SDS011;7781;49.690;6.472;2022-12-11T11:35:04;16.87;;;8.03;;
15363;SDS011;7781;49.690;6.472;2022-12-11T11:37:44;15.60;;;7.90;;
15363;SDS011;7781;49.690;6.472;2022-12-11T11:40:18;16.50;;;7.27;;
15363;SDS011;7781;49.690;6.472;2022-12-11T11:42:59;13.73;;;7.10;;
15363;SDS011;7781;49.690;6.472;2022-12-11T11:45:36;16.17;;;7.83;;
15363;SDS011;7781;49.690;6.472;2022-12-11T11:48:19;19.10;;;7.83;;
15363;SDS011;7781;49.690;6.472;2022-12-11T11:50:57;15.10;;;8.20;;
15363;SDS011;7781;49.690;6.472;2022-12-11T11:53:33;16.57;;;8.30;;
15363;SDS011;7781;49.690;6.472;2022-12-11T11:56:13;17.83;;;8.50;;
15363;SDS011;7781;49.690;6.472;2022-12-11T11:58:51;20.03;;;8.50;;
15363;SDS011;7781;49.690;6.472;2022-12-11T12:01:28;21.77;;;7.97;;
15363;SDS011;7781;49.690;6.472;2022-12-11T12:03:57;18.83;;;7.90;;
15363;SDS011;7781;49.690;6.472;2022-12-11T12:09:41;16.70;;;8.37;;
15363;SDS011;7781;49.690;6.472;2022-12-11T12:12:22;23.10;;;9.13;;
15363;SDS011;7781;49.690;6.472;2022-12-11T12:15:05;17.07;;;8.33;;
15363;SDS011;7781;49.690;6.472;2022-12-11T12:17:47;16.37;;;7.70;;
15363;SDS011;7781;49.690;6.472;2022-12-11T12:20:29;17.57;;;9.00;;
15363;SDS011;7781;49.690;6.472;2022-12-11T12:23:10;16.17;;;8.10;;
15363;SDS011;7781;49.690;6.472;2022-12-11T12:26:04;18.27;;;8.63;;
15363;SDS011;7781;49.690;6.472;2022-12-11T12:28:42;16.80;;;8.90;;
15363;SDS011;7781;49.690;6.472;2022-12-11T12:31:23;18.43;;;7.50;;
15363;SDS011;7781;49.690;6.472;2022-12-11T12:34:05;15.63;;;8.20;;
15363;SDS011;7781;49.690;6.472;2022-12-11T12:36:47;15.13;;;7.60;;
15363;SDS011;7781;49.690;6.472;2022-12-11T12:39:24;19.03;;;7.63;;
15363;SDS011;7781;49.690;6.472;2022-12-11T12:42:01;13.43;;;7.30;;
15363;SDS011;7781;49.690;6.472;2022-12-11T12:44:45;14.57;;;7.53;;
15363;SDS011;7781;49.690;6.472;2022-12-11T12:47:21;15.80;;;7.67;;
15363;SDS011;7781;49.690;6.472;2022-12-11T12:49:51;17.07;;;9.50;;
15363;SDS011;7781;49.690;6.472;2022-12-11T12:52:23;20.40;;;8.40;;
15363;SDS011;7781;49.690;6.472;2022-12-11T12:55:02;18.23;;;7.70;;
15363;SDS011;7781;49.690;6.472;2022-12-11T12:57:46;16.03;;;7.90;;
15363;SDS011;7781;49.690;6.472;2022-12-11T13:00:29;15.10;;;7.00;;
15363;SDS011;7781;49.690;6.472;2022-12-11T13:03:10;13.40;;;7.10;;
15363;SDS011;7781;49.690;6.472;2022-12-11T13:05:42;22.83;;;9.20;;
15363;SDS011;7781;49.690;6.472;2022-12-11T13:08:17;24.07;;;8.77;;
15363;SDS011;7781;49.690;6.472;2022-12-11T13:10:58;22.07;;;8.87;;
15363;SDS011;7781;49.690;6.472;2022-12-11T13:13:31;20.50;;;8.43;;
15363;SDS011;7781;49.690;6.472;2022-12-11T13:16:20;20.93;;;8.40;;
15363;SDS011;7781;49.690;6.472;2022-12-11T13:18:54;20.27;;;8.67;;
15363;SDS011;7781;49.690;6.472;2022-12-11T13:21:25;18.37;;;8.60;;
15363;SDS011;7781;49.690;6.472;2022-12-11T13:24:12;19.70;;;8.63;;
15363;SDS011;7781;49.690;6.472;2022-12-11T13:26:46;17.97;;;8.30;;
15363;SDS011;7781;49.690;6.472;2022-12-11T13:29:28;16.47;;;6.80;;
15363;SDS011;7781;49.690;6.472;2022-12-11T13:32:19;15.93;;;8.47;;
15363;SDS011;7781;49.690;6.472;2022-12-11T13:34:51;16.60;;;9.23;;
15363;SDS011;7781;49.690;6.472;2022-12-11T13:37:23;20.10;;;7.83;;
15363;SDS011;7781;49.690;6.472;2022-12-11T13:40:02;18.80;;;8.17;;
15363;SDS011;7781;49.690;6.472;2022-12-11T13:42:36;15.13;;;6.97;;
15363;SDS011;7781;49.690;6.472;2022-12-11T13:45:17;15.03;;;6.70;;
15363;SDS011;7781;49.690;6.472;2022-12-11T13:47:51;20.43;;;8.50;;
15363;SDS011;7781;49.690;6.472;2022-12-11T13:50:23;28.30;;;8.47;;
15363;SDS011;7781;49.690;6.472;2022-12-11T13:52:56;20.90;;;6.93;;
15363;SDS011;7781;49.690;6.472;2022-12-11T13:55:26;19.77;;;8.73;;
15363;SDS011;7781;49.690;6.472;2022-12-11T13:57:57;9.33;;;5.13;;
15363;SDS011;7781;49.690;6.472;2022-12-11T14:00:27;13.83;;;5.93;;
15363;SDS011;7781;49.690;6.472;2022-12-11T14:03:00;15.00;;;7.00;;
15363;SDS011;7781;49.690;6.472;2022-12-11T14:05:33;9.90;;;5.27;;
15363;SDS011;7781;49.690;6.472;2022-12-11T14:08:04;16.67;;;8.67;;
15363;SDS011;7781;49.690;6.472;2022-12-11T14:10:36;14.93;;;7.60;;
15363;SDS011;7781;49.690;6.472;2022-12-11T14:13:13;15.43;;;7.47;;
15363;SDS011;7781;49.690;6.472;2022-12-11T14:15:47;20.03;;;8.80;;
15363;SDS011;7781;49.690;6.472;2022-12-11T14:18:19;17.17;;;7.20;;
15363;SDS011;7781;49.690;6.472;2022-12-11T14:20:53;18.87;;;8.27;;
15363;SDS011;7781;49.690;6.472;2022-12-11T14:23:24;17.23;;;7.53;;
15363;SDS011;7781;49.690;6.472;2022-12-11T14:25:56;19.07;;;8.40;;
15363;SDS011;7781;49.690;6.472;2022-12-11T14:28:27;12.30;;;6.63;;
15363;SDS011;7781;49.690;6.472;2022-12-11T14:31:03;18.53;;;8.30;;
15363;SDS011;7781;49.690;6.472;2022-12-11T14:33:42;15.53;;;8.07;;
15363;SDS011;7781;49.690;6.472;2022-12-11T14:36:15;17.60;;;7.30;;
15363;SDS011;7781;49.690;6.472;2022-12-11T14:38:44;15.87;;;7.53;;
15363;SDS011;7781;49.690;6.472;2022-12-11T14:41:20;15.97;;;7.67;;
15363;SDS011;7781;49.690;6.472;2022-12-11T14:43:55;11.07;;;5.80;;
15363;SDS011;7781;49.690;6.472;2022-12-11T14:46:30;19.67;;;7.37;;
15363;SDS011;7781;49.690;6.472;2022-12-11T14:49:11;16.23;;;6.83;;
15363;SDS011;7781;49.690;6.472;2022-12-11T14:51:49;15.60;;;5.70;;
15363;SDS011;7781;49.690;6.472;2022-12-11T14:54:23;21.13;;;7.80;;
15363;SDS011;7781;49.690;6.472;2022-12-11T14:56:57;15.90;;;8.40;;
15363;SDS011;7781;49.690;6.472;2022-12-11T14:59:39;17.47;;;7.57;;
15363;SDS011;7781;49.690;6.472;2022-12-11T15:02:24;13.83;;;6.90;;
15363;SDS011;7781;49.690;6.472;2022-12-11T15:05:04;20.70;;;8.60;;
15363;SDS011;7781;49.690;6.472;2022-12-11T15:07:42;20.50;;;8.33;;
15363;SDS011;7781;49.690;6.472;2022-12-11T15:10:21;16.60;;;8.90;;
15363;SDS011;7781;49.690;6.472;2022-12-11T15:12:53;16.90;;;8.23;;
15363;SDS011;7781;49.690;6.472;2022-12-11T15:15:21;16.20;;;8.00;;
15363;SDS011;7781;49.690;6.472;2022-12-11T15:17:50;20.37;;;8.87;;
15363;SDS011;7781;49.690;6.472;2022-12-11T15:20:22;20.87;;;8.50;;
15363;SDS011;7781;49.690;6.472;2022-12-11T15:22:53;19.00;;;8.90;;
15363;SDS011;7781;49.690;6.472;2022-12-11T15:25:28;19.13;;;8.80;;
15363;SDS011;7781;49.690;6.472;2022-12-11T15:27:58;24.30;;;10.07;;
15363;SDS011;7781;49.690;6.472;2022-12-11T15:30:29;17.53;;;8.20;;